Time;durP1;ratioP1;P1;durP2;ratioP2;P2;SDS_P1;SDS_P2;PMS_P1;PMS_P2;Temp;Humidity;BMP_temperature;BMP_pressure;BME280_temperature;BME280_humidity;BME280_pressure;Samples;Min_cycle;Max_cycle;Signal;HPM_P1;HPM_P2
2022/02/16 00:01:09;;;;;;;7.50;3.67;;;;;;;;;;1755726;81;21004;-68
2022/02/16 00:03:36;;;;;;;7.67;3.62;;;;;;;;;;1754452;81;21036;-68
2022/02/16 00:06:02;;;;;;;5.60;3.22;;;;;;;;;;1756088;81;21060;-69
2022/02/16 00:08:28;;;;;;;8.43;4.03;;;;;;;;;;1755264;81;21615;-69
2022/02/16 00:10:54;;;;;;;7.58;4.03;;;;;;;;;;1755559;81;21531;-68
2022/02/16 00:13:20;;;;;;;7.90;4.15;;;;;;;;;;1755730;81;21115;-69
2022/02/16 00:15:48;;;;;;;9.18;5.08;;;;;;;;;;1757200;81;21432;-69
2022/02/16 00:18:14;;;;;;;13.80;5.12;;;;;;;;;;1755633;81;21064;-69
2022/02/16 00:20:40;;;;;;;7.08;3.90;;;;;;;;;;1754803;81;20983;-69
2022/02/16 00:23:06;;;;;;;9.98;4.95;;;;;;;;;;1734396;81;21099;-69
2022/02/16 00:25:32;;;;;;;5.97;3.70;;;;;;;;;;1755630;81;21012;-68
2022/02/16 00:27:59;;;;;;;6.35;3.75;;;;;;;;;;1756697;81;21060;-69
2022/02/16 00:30:25;;;;;;;5.85;3.45;;;;;;;;;;1755350;81;21566;-69
2022/02/16 00:32:52;;;;;;;6.05;3.40;;;;;;;;;;1756410;81;21024;-68
2022/02/16 00:35:19;;;;;;;9.08;4.35;;;;;;;;;;1755133;81;21017;-68
2022/02/16 00:37:45;;;;;;;6.25;2.98;;;;;;;;;;1755709;81;21092;-70
2022/02/16 00:40:12;;;;;;;7.78;4.62;;;;;;;;;;1755789;81;21543;-68
2022/02/16 00:42:40;;;;;;;12.13;5.10;;;;;;;;;;1754993;81;21052;-69
2022/02/16 00:45:07;;;;;;;8.10;4.25;;;;;;;;;;1756786;81;21028;-69
2022/02/16 00:47:34;;;;;;;8.15;4.37;;;;;;;;;;1753121;81;21112;-69
2022/02/16 00:50:00;;;;;;;8.58;4.10;;;;;;;;;;1754477;81;21480;-69
2022/02/16 00:52:26;;;;;;;7.55;4.40;;;;;;;;;;1751433;81;20997;-68
2022/02/16 00:54:52;;;;;;;7.20;3.47;;;;;;;;;;1753177;81;20978;-69
2022/02/16 00:57:18;;;;;;;9.48;5.10;;;;;;;;;;1754371;80;21058;-69
2022/02/16 00:59:44;;;;;;;6.67;4.10;;;;;;;;;;1755094;80;21695;-69
2022/02/16 01:02:11;;;;;;;7.08;4.12;;;;;;;;;;1756126;80;21088;-68
2022/02/16 01:04:36;;;;;;;8.23;4.10;;;;;;;;;;1723345;81;21025;-69
2022/02/16 01:07:04;;;;;;;11.12;5.00;;;;;;;;;;1755652;80;21166;-68
2022/02/16 01:09:31;;;;;;;7.30;4.35;;;;;;;;;;1755313;80;21025;-68
2022/02/16 01:11:58;;;;;;;9.73;4.67;;;;;;;;;;1755617;80;21524;-69
2022/02/16 01:14:26;;;;;;;9.63;4.40;;;;;;;;;;1755527;80;21036;-69
2022/02/16 01:17:00;;;;;;;9.55;4.47;;;;;;;;;;1742574;80;21016;-68
2022/02/16 01:19:37;;;;;;;9.88;4.25;;;;;;;;;;1721698;80;22204;-69
2022/02/16 01:22:05;;;;;;;7.95;4.15;;;;;;;;;;1723279;81;21555;-69
2022/02/16 01:24:32;;;;;;;6.22;4.05;;;;;;;;;;1757137;80;21001;-69
2022/02/16 01:27:00;;;;;;;8.88;4.00;;;;;;;;;;1756424;80;21619;-69
2022/02/16 01:29:27;;;;;;;6.35;4.00;;;;;;;;;;1755217;80;21048;-69
2022/02/16 01:31:55;;;;;;;8.58;4.80;;;;;;;;;;1725573;81;21587;-69
2022/02/16 01:34:22;;;;;;;12.10;4.62;;;;;;;;;;1732308;81;21551;-68
2022/02/16 01:36:49;;;;;;;6.95;4.12;;;;;;;;;;1730084;81;21377;-68
2022/02/16 01:39:15;;;;;;;7.92;4.10;;;;;;;;;;1752176;81;21334;-68
2022/02/16 01:41:43;;;;;;;7.42;3.62;;;;;;;;;;1752649;81;21093;-69
2022/02/16 01:44:10;;;;;;;10.08;4.80;;;;;;;;;;1751932;81;21002;-67
2022/02/16 01:46:50;;;;;;;7.80;3.87;;;;;;;;;;1729939;81;21715;-68
2022/02/16 01:49:16;;;;;;;7.80;4.40;;;;;;;;;;1731082;81;21551;-68
2022/02/16 01:51:42;;;;;;;8.03;4.53;;;;;;;;;;1729035;81;21104;-68
2022/02/16 01:54:09;;;;;;;8.75;4.87;;;;;;;;;;1735555;81;21136;-68
2022/02/16 01:56:36;;;;;;;7.95;4.75;;;;;;;;;;1759115;80;21024;-68
2022/02/16 01:59:02;;;;;;;11.18;4.22;;;;;;;;;;1732562;81;21021;-68
2022/02/16 02:04:35;;;;;;;6.83;3.50;;;;;;;;;;1756666;79;21175;-69
2022/02/16 02:07:03;;;;;;;6.33;4.03;;;;;;;;;;1768807;80;21642;-69
2022/02/16 02:09:30;;;;;;;8.73;4.22;;;;;;;;;;1735018;80;21013;-69
2022/02/16 02:11:56;;;;;;;9.48;5.00;;;;;;;;;;1745492;80;21643;-69
2022/02/16 02:14:22;;;;;;;7.10;4.28;;;;;;;;;;1734607;80;21543;-68
2022/02/16 02:16:50;;;;;;;7.40;3.75;;;;;;;;;;1767539;80;21017;-68
2022/02/16 02:19:18;;;;;;;13.88;6.05;;;;;;;;;;1771383;80;21473;-69
2022/02/16 02:21:47;;;;;;;12.50;5.53;;;;;;;;;;1777138;80;21080;-68
2022/02/16 02:24:13;;;;;;;10.53;6.20;;;;;;;;;;1745834;81;22066;-69
2022/02/16 02:26:38;;;;;;;8.23;4.33;;;;;;;;;;1770329;80;21120;-69
2022/02/16 02:29:04;;;;;;;8.73;5.25;;;;;;;;;;1720936;82;21077;-68
2022/02/16 02:31:34;;;;;;;9.63;4.78;;;;;;;;;;1720342;81;20995;-69
2022/02/16 02:34:00;;;;;;;10.10;5.03;;;;;;;;;;1745085;80;20992;-69
2022/02/16 02:36:26;;;;;;;8.80;4.42;;;;;;;;;;1769680;80;21040;-69
2022/02/16 02:38:52;;;;;;;8.25;4.67;;;;;;;;;;1722088;82;21567;-69
2022/02/16 02:41:18;;;;;;;10.05;5.08;;;;;;;;;;1770324;80;21090;-68
2022/02/16 02:43:45;;;;;;;10.55;5.05;;;;;;;;;;1722764;81;21548;-68
2022/02/16 02:46:12;;;;;;;9.15;4.28;;;;;;;;;;1692856;84;21633;-69
2022/02/16 02:48:40;;;;;;;6.30;3.72;;;;;;;;;;1772872;80;21052;-68
2022/02/16 02:51:06;;;;;;;10.68;5.42;;;;;;;;;;1721858;82;21551;-69
2022/02/16 02:53:35;;;;;;;11.48;4.95;;;;;;;;;;1720719;82;21544;-68
2022/02/16 02:56:02;;;;;;;8.83;4.58;;;;;;;;;;1721037;82;21050;-68
2022/02/16 02:58:29;;;;;;;9.68;6.10;;;;;;;;;;1720537;82;21021;-68
2022/02/16 03:00:55;;;;;;;9.33;5.33;;;;;;;;;;1726637;82;21008;-69
2022/02/16 03:03:21;;;;;;;9.70;4.78;;;;;;;;;;1717343;83;21140;-69
2022/02/16 03:05:48;;;;;;;8.95;4.05;;;;;;;;;;1705354;83;21036;-68
2022/02/16 03:08:15;;;;;;;14.45;6.67;;;;;;;;;;1777170;80;21044;-68
2022/02/16 03:10:42;;;;;;;11.60;6.75;;;;;;;;;;1773502;80;21048;-69
2022/02/16 03:13:19;;;;;;;8.13;4.60;;;;;;;;;;1775429;80;20991;-68
2022/02/16 03:15:37;;;;;;;11.12;6.03;;;;;;;;;;1772457;80;21004;-69
2022/02/16 03:18:04;;;;;;;12.25;6.83;;;;;;;;;;1765471;81;21047;-68
2022/02/16 03:20:30;;;;;;;10.82;5.65;;;;;;;;;;1771658;80;20976;-68
2022/02/16 03:22:56;;;;;;;10.65;5.25;;;;;;;;;;1777842;80;21035;-68
2022/02/16 03:25:22;;;;;;;5.92;3.75;;;;;;;;;;1777976;80;21039;-68
2022/02/16 03:27:49;;;;;;;8.93;4.65;;;;;;;;;;1772278;80;21091;-69
2022/02/16 03:30:14;;;;;;;13.72;5.70;;;;;;;;;;1773105;80;21052;-68
2022/02/16 03:32:43;;;;;;;11.73;6.10;;;;;;;;;;1768851;80;21061;-70
2022/02/16 03:35:09;;;;;;;11.80;6.22;;;;;;;;;;1764427;80;21555;-69
2022/02/16 03:37:36;;;;;;;12.05;5.53;;;;;;;;;;1773606;80;20978;-68
2022/02/16 03:40:04;;;;;;;11.28;6.33;;;;;;;;;;1773356;80;20992;-68
2022/02/16 03:42:31;;;;;;;6.62;3.45;;;;;;;;;;1747185;81;20992;-69
2022/02/16 03:44:56;;;;;;;7.83;4.65;;;;;;;;;;1735509;80;20996;-68
2022/02/16 03:47:24;;;;;;;12.00;6.92;;;;;;;;;;1777195;80;21363;-69
2022/02/16 03:49:50;;;;;;;10.90;6.58;;;;;;;;;;1753986;80;21440;-69
2022/02/16 03:52:16;;;;;;;9.50;5.20;;;;;;;;;;1773603;80;21000;-70
2022/02/16 03:54:42;;;;;;;13.83;5.67;;;;;;;;;;1777775;80;20949;-69
2022/02/16 03:57:09;;;;;;;12.00;5.08;;;;;;;;;;1750422;80;21016;-68
2022/02/16 03:59:34;;;;;;;10.93;5.12;;;;;;;;;;1757985;80;20962;-69
2022/02/16 04:02:11;;;;;;;11.83;6.15;;;;;;;;;;1755180;80;21033;-69
2022/02/16 04:04:38;;;;;;;10.43;5.12;;;;;;;;;;1759053;80;21146;-69
2022/02/16 04:07:04;;;;;;;11.63;5.90;;;;;;;;;;1747796;81;21048;-69
2022/02/16 04:09:30;;;;;;;9.83;5.08;;;;;;;;;;1751294;80;20976;-68
2022/02/16 04:11:58;;;;;;;10.28;5.05;;;;;;;;;;1750565;81;21068;-68
2022/02/16 04:14:24;;;;;;;10.20;4.70;;;;;;;;;;1765633;81;21008;-69
2022/02/16 04:16:50;;;;;;;7.40;3.47;;;;;;;;;;1750402;81;21033;-69
2022/02/16 04:19:16;;;;;;;7.37;4.05;;;;;;;;;;1763879;80;22138;-68
2022/02/16 04:21:43;;;;;;;8.30;4.97;;;;;;;;;;1761323;80;21523;-67
2022/02/16 04:24:09;;;;;;;9.68;5.03;;;;;;;;;;1763047;80;20997;-68
2022/02/16 04:26:35;;;;;;;8.98;4.92;;;;;;;;;;1773790;80;21047;-69
2022/02/16 04:29:01;;;;;;;13.20;5.53;;;;;;;;;;1757713;80;21539;-68
2022/02/16 04:31:29;;;;;;;14.10;5.92;;;;;;;;;;1745722;81;21032;-68
2022/02/16 04:33:55;;;;;;;12.00;5.33;;;;;;;;;;1749513;81;21020;-68
2022/02/16 04:36:26;;;;;;;8.38;4.87;;;;;;;;;;1774472;80;21048;-68
2022/02/16 04:38:56;;;;;;;16.62;6.17;;;;;;;;;;1741941;80;21012;-68
2022/02/16 04:41:22;;;;;;;10.08;5.20;;;;;;;;;;1707227;80;21547;-68
2022/02/16 04:43:48;;;;;;;9.28;4.80;;;;;;;;;;1747540;80;21046;-69
2022/02/16 04:46:14;;;;;;;8.68;5.08;;;;;;;;;;1778606;80;20953;-68
2022/02/16 04:48:40;;;;;;;12.00;4.97;;;;;;;;;;1775052;80;22117;-68
2022/02/16 04:51:07;;;;;;;8.60;4.72;;;;;;;;;;1755111;80;21059;-68
2022/02/16 04:53:33;;;;;;;8.63;4.80;;;;;;;;;;1749168;81;20989;-68
2022/02/16 04:56:00;;;;;;;14.68;6.42;;;;;;;;;;1748931;81;21051;-69
2022/02/16 04:58:26;;;;;;;11.83;4.78;;;;;;;;;;1768575;81;21491;-69
2022/02/16 05:00:52;;;;;;;14.15;6.47;;;;;;;;;;1723757;80;21024;-68
2022/02/16 05:03:20;;;;;;;11.88;5.58;;;;;;;;;;1742258;81;21551;-69
2022/02/16 05:05:48;;;;;;;12.20;6.92;;;;;;;;;;1731174;80;21560;-68
2022/02/16 05:08:14;;;;;;;14.23;6.65;;;;;;;;;;1758369;80;20989;-69
2022/02/16 05:10:40;;;;;;;13.00;6.62;;;;;;;;;;1741097;80;21052;-68
2022/02/16 05:13:08;;;;;;;10.65;5.33;;;;;;;;;;1776394;80;20960;-69
2022/02/16 05:15:34;;;;;;;10.90;5.22;;;;;;;;;;1749664;81;21507;-68
2022/02/16 05:18:01;;;;;;;12.30;5.28;;;;;;;;;;1732946;80;21360;-69
2022/02/16 05:20:29;;;;;;;9.98;5.67;;;;;;;;;;1743149;81;21551;-68
2022/02/16 05:22:55;;;;;;;20.43;8.88;;;;;;;;;;1757933;80;21060;-69
2022/02/16 05:25:21;;;;;;;11.93;5.95;;;;;;;;;;1728788;81;21100;-68
2022/02/16 05:27:47;;;;;;;12.20;6.42;;;;;;;;;;1748997;82;21037;-68
2022/02/16 05:30:13;;;;;;;7.83;4.95;;;;;;;;;;1736332;81;21552;-67
2022/02/16 05:32:41;;;;;;;9.75;5.28;;;;;;;;;;1736241;80;21507;-67
2022/02/16 05:35:09;;;;;;;8.60;4.58;;;;;;;;;;1730477;81;21535;-67
2022/02/16 05:37:35;;;;;;;9.18;5.22;;;;;;;;;;1735853;80;21044;-69
2022/02/16 05:40:01;;;;;;;10.58;5.03;;;;;;;;;;1753354;80;21012;-69
2022/02/16 05:42:30;;;;;;;9.60;4.53;;;;;;;;;;1739935;80;21060;-69
2022/02/16 05:44:57;;;;;;;8.83;4.87;;;;;;;;;;1745855;80;20965;-69
2022/02/16 05:47:23;;;;;;;6.60;3.92;;;;;;;;;;1742635;81;21053;-68
2022/02/16 05:49:49;;;;;;;9.18;5.20;;;;;;;;;;1719110;81;21096;-68
2022/02/16 05:52:15;;;;;;;10.48;6.03;;;;;;;;;;1659034;85;21607;-67
2022/02/16 05:54:41;;;;;;;12.37;6.30;;;;;;;;;;1726208;82;20977;-68
2022/02/16 05:57:07;;;;;;;12.35;5.80;;;;;;;;;;1735035;82;21060;-69
2022/02/16 05:59:34;;;;;;;16.48;7.28;;;;;;;;;;1730364;81;22130;-69
2022/02/16 06:02:03;;;;;;;10.75;5.53;;;;;;;;;;1747179;80;21028;-68
2022/02/16 06:04:30;;;;;;;10.30;4.78;;;;;;;;;;1776645;80;21684;-69
2022/02/16 06:06:56;;;;;;;10.88;5.55;;;;;;;;;;1767251;80;21080;-69
2022/02/16 06:09:23;;;;;;;10.45;4.50;;;;;;;;;;1757130;80;21064;-69
2022/02/16 06:11:49;;;;;;;9.65;5.37;;;;;;;;;;1763893;80;20992;-69
2022/02/16 06:14:16;;;;;;;12.95;6.08;;;;;;;;;;1774691;80;20996;-68
2022/02/16 06:16:44;;;;;;;12.28;5.65;;;;;;;;;;1750172;80;21043;-68
2022/02/16 06:19:09;;;;;;;12.33;5.92;;;;;;;;;;1781842;80;21606;-69
2022/02/16 06:21:36;;;;;;;11.35;5.33;;;;;;;;;;1767911;80;21540;-68
2022/02/16 06:24:02;;;;;;;12.73;4.83;;;;;;;;;;1744255;80;20993;-68
2022/02/16 06:26:28;;;;;;;12.03;6.17;;;;;;;;;;1745785;80;21060;-68
2022/02/16 06:28:54;;;;;;;13.70;5.90;;;;;;;;;;1740851;82;21492;-69
2022/02/16 06:31:21;;;;;;;12.95;6.10;;;;;;;;;;1720775;82;21060;-68
2022/02/16 06:33:47;;;;;;;16.60;7.50;;;;;;;;;;1759697;80;20995;-69
2022/02/16 06:36:13;;;;;;;11.68;6.40;;;;;;;;;;1746551;82;21169;-68
2022/02/16 06:38:41;;;;;;;12.63;5.90;;;;;;;;;;1756966;80;21047;-67
2022/02/16 06:41:09;;;;;;;11.45;5.28;;;;;;;;;;1768490;80;21004;-68
2022/02/16 06:43:36;;;;;;;11.20;5.58;;;;;;;;;;1771939;80;21060;-68
2022/02/16 06:46:02;;;;;;;11.93;5.53;;;;;;;;;;1780479;80;21055;-68
2022/02/16 06:48:29;;;;;;;9.85;4.97;;;;;;;;;;1775076;81;21563;-68
2022/02/16 06:50:54;;;;;;;8.25;5.00;;;;;;;;;;1748872;80;21052;-68
2022/02/16 06:53:21;;;;;;;11.60;5.03;;;;;;;;;;1733391;82;21036;-69
2022/02/16 06:55:48;;;;;;;10.63;5.78;;;;;;;;;;1728558;81;21059;-69
2022/02/16 06:58:16;;;;;;;12.35;6.22;;;;;;;;;;1743098;82;21064;-67
2022/02/16 07:00:43;;;;;;;10.98;5.80;;;;;;;;;;1743200;80;21358;-68
2022/02/16 07:03:10;;;;;;;12.60;6.47;;;;;;;;;;1739099;80;21059;-75
2022/02/16 07:05:38;;;;;;;12.75;5.97;;;;;;;;;;1736218;81;21011;-70
2022/02/16 07:08:05;;;;;;;9.98;4.90;;;;;;;;;;1736429;82;21063;-69
2022/02/16 07:10:33;;;;;;;14.78;5.85;;;;;;;;;;1742738;80;21015;-71
2022/02/16 07:13:00;;;;;;;13.05;5.90;;;;;;;;;;1754555;80;21472;-69
2022/02/16 07:15:31;;;;;;;11.43;5.58;;;;;;;;;;1772321;80;21023;-70
2022/02/16 07:17:56;;;;;;;11.90;6.47;;;;;;;;;;1773872;80;21039;-72
2022/02/16 07:20:22;;;;;;;12.47;6.45;;;;;;;;;;1756819;79;21024;-70
2022/02/16 07:22:48;;;;;;;13.62;7.03;;;;;;;;;;1739711;82;21009;-70
2022/02/16 07:25:17;;;;;;;13.58;5.87;;;;;;;;;;1747461;80;20979;-70
2022/02/16 07:27:45;;;;;;;10.90;5.72;;;;;;;;;;1746727;81;20976;-70
2022/02/16 07:30:13;;;;;;;8.63;5.00;;;;;;;;;;1740551;81;21553;-70
2022/02/16 07:32:40;;;;;;;11.55;5.70;;;;;;;;;;1751284;80;21049;-71
2022/02/16 07:35:08;;;;;;;9.75;4.92;;;;;;;;;;1746533;81;21032;-71
2022/02/16 07:37:36;;;;;;;12.78;5.47;;;;;;;;;;1743272;82;21025;-71
2022/02/16 07:40:04;;;;;;;10.50;5.45;;;;;;;;;;1747104;82;21040;-71
2022/02/16 07:42:31;;;;;;;11.53;5.60;;;;;;;;;;1757398;80;21460;-70
2022/02/16 07:45:15;;;;;;;14.55;6.53;;;;;;;;;;1753469;81;21036;-69
2022/02/16 07:47:42;;;;;;;13.13;5.47;;;;;;;;;;1752474;81;21065;-70
2022/02/16 07:50:08;;;;;;;14.63;8.03;;;;;;;;;;1736183;81;21039;-71
2022/02/16 07:52:48;;;;;;;18.45;6.70;;;;;;;;;;1763809;80;20997;-70
2022/02/16 07:55:19;;;;;;;11.63;5.45;;;;;;;;;;1749123;80;21023;-70
2022/02/16 07:57:46;;;;;;;13.58;6.37;;;;;;;;;;1741398;82;21009;-69
2022/02/16 08:00:13;;;;;;;13.85;6.05;;;;;;;;;;1736094;82;21054;-70
2022/02/16 08:04:45;;;;;;;9.33;5.08;;;;;;;;;;1806611;78;22816;-69
2022/02/16 08:07:13;;;;;;;11.60;5.62;;;;;;;;;;1785320;80;21060;-70
2022/02/16 08:09:39;;;;;;;14.20;6.60;;;;;;;;;;1759215;80;21019;-70
2022/02/16 08:12:06;;;;;;;11.63;5.92;;;;;;;;;;1758225;80;21036;-72
2022/02/16 08:14:33;;;;;;;12.60;5.90;;;;;;;;;;1775092;80;21543;-70
2022/02/16 08:17:06;;;;;;;10.35;5.50;;;;;;;;;;1781141;80;20993;-69
2022/02/16 08:19:32;;;;;;;11.70;6.45;;;;;;;;;;1772951;80;21051;-72
2022/02/16 08:21:59;;;;;;;11.48;6.28;;;;;;;;;;1771761;80;21753;-69
2022/02/16 08:24:27;;;;;;;13.83;6.40;;;;;;;;;;1768519;80;21034;-70
2022/02/16 08:26:56;;;;;;;14.10;6.65;;;;;;;;;;1775465;80;21016;-68
2022/02/16 08:29:25;;;;;;;15.10;6.58;;;;;;;;;;1756788;80;21020;-69
2022/02/16 08:31:52;;;;;;;11.68;5.60;;;;;;;;;;1749032;80;21024;-70
2022/02/16 08:34:29;;;;;;;12.75;6.97;;;;;;;;;;1778809;80;21063;-70
2022/02/16 08:37:00;;;;;;;12.98;6.97;;;;;;;;;;1731640;83;21068;-69
2022/02/16 08:39:26;;;;;;;14.20;7.20;;;;;;;;;;1761266;80;21575;-69
2022/02/16 08:41:52;;;;;;;14.25;6.47;;;;;;;;;;1735434;81;21546;-69
2022/02/16 08:44:19;;;;;;;15.83;7.22;;;;;;;;;;1737824;80;21032;-68
2022/02/16 08:46:44;;;;;;;16.57;6.22;;;;;;;;;;1763993;80;21020;-69
2022/02/16 08:49:10;;;;;;;12.98;7.37;;;;;;;;;;1772835;80;20984;-69
2022/02/16 08:51:36;;;;;;;15.13;7.37;;;;;;;;;;1773785;80;21056;-68
2022/02/16 08:54:02;;;;;;;15.08;7.75;;;;;;;;;;1769070;80;21051;-70
2022/02/16 08:56:29;;;;;;;13.40;6.85;;;;;;;;;;1768399;80;21832;-68
2022/02/16 08:58:57;;;;;;;12.13;6.87;;;;;;;;;;1759918;80;20988;-69
2022/02/16 09:01:23;;;;;;;14.80;7.20;;;;;;;;;;1767938;80;21000;-69
2022/02/16 09:03:49;;;;;;;16.67;7.65;;;;;;;;;;1732021;82;21092;-70
2022/02/16 09:06:15;;;;;;;13.18;6.47;;;;;;;;;;1699564;83;21200;-69
2022/02/16 09:08:41;;;;;;;16.17;7.08;;;;;;;;;;1726136;83;21067;-71
2022/02/16 09:11:07;;;;;;;15.68;8.03;;;;;;;;;;1729716;82;21622;-70
2022/02/16 09:13:35;;;;;;;14.95;7.60;;;;;;;;;;1736272;81;21694;-69
2022/02/16 09:16:01;;;;;;;11.65;6.87;;;;;;;;;;1720905;82;21060;-70
2022/02/16 09:18:27;;;;;;;15.98;7.75;;;;;;;;;;1743442;82;21068;-69
2022/02/16 09:20:54;;;;;;;13.10;7.20;;;;;;;;;;1751185;82;21040;-69
2022/02/16 09:23:20;;;;;;;16.55;8.63;;;;;;;;;;1747277;82;21048;-68
2022/02/16 09:25:46;;;;;;;9.78;5.55;;;;;;;;;;1699213;83;21615;-69
2022/02/16 09:28:12;;;;;;;17.20;7.97;;;;;;;;;;1728992;82;20984;-68
2022/02/16 09:30:38;;;;;;;14.00;7.35;;;;;;;;;;1728753;82;20981;-69
2022/02/16 09:33:05;;;;;;;13.25;6.65;;;;;;;;;;1725985;82;21537;-69
2022/02/16 09:35:31;;;;;;;16.25;7.70;;;;;;;;;;1694145;83;21074;-69
2022/02/16 09:37:57;;;;;;;14.60;6.72;;;;;;;;;;1721674;83;21497;-69
2022/02/16 09:40:23;;;;;;;17.55;7.90;;;;;;;;;;1730221;82;21594;-69
2022/02/16 09:42:49;;;;;;;13.50;6.60;;;;;;;;;;1740052;82;21102;-70
2022/02/16 09:45:16;;;;;;;14.93;6.87;;;;;;;;;;1737649;82;21116;-71
2022/02/16 09:47:43;;;;;;;13.95;6.60;;;;;;;;;;1745107;82;21083;-70
2022/02/16 09:50:11;;;;;;;16.00;7.92;;;;;;;;;;1729354;83;21050;-70
2022/02/16 09:52:38;;;;;;;12.05;6.25;;;;;;;;;;1737259;82;21040;-70
2022/02/16 09:55:05;;;;;;;13.55;6.45;;;;;;;;;;1746130;82;21068;-69
2022/02/16 09:57:31;;;;;;;13.62;6.42;;;;;;;;;;1751501;82;21063;-70
2022/02/16 09:59:57;;;;;;;14.87;7.72;;;;;;;;;;1751536;82;21076;-70
2022/02/16 10:02:23;;;;;;;15.05;7.78;;;;;;;;;;1751463;80;21124;-70
2022/02/16 10:04:57;;;;;;;18.23;8.70;;;;;;;;;;1716638;83;21010;-70
2022/02/16 10:07:23;;;;;;;;;;;;;;;;;;1743214;82;21040;-70
2022/02/16 10:09:49;;;;;;;14.18;6.83;;;;;;;;;;1720966;82;20119;-70
2022/02/16 10:12:16;;;;;;;13.68;6.87;;;;;;;;;;1694235;83;21028;-71
2022/02/16 10:14:42;;;;;;;13.30;7.45;;;;;;;;;;1712185;83;21008;-70
2022/02/16 10:17:17;;;;;;;17.00;8.10;;;;;;;;;;1695246;82;21566;-71
2022/02/16 10:19:48;;;;;;;12.75;6.33;;;;;;;;;;1719077;82;21568;-73
2022/02/16 10:22:14;;;;;;;16.75;8.85;;;;;;;;;;1721717;82;21095;-72
2022/02/16 10:24:40;;;;;;;14.85;7.55;;;;;;;;;;1733040;82;21032;-71
2022/02/16 10:27:06;;;;;;;19.17;9.50;;;;;;;;;;1726767;82;21092;-70
2022/02/16 10:29:33;;;;;;;20.27;9.33;;;;;;;;;;1715671;82;21045;-70
2022/02/16 10:31:59;;;;;;;15.45;8.20;;;;;;;;;;1721923;82;21024;-70
2022/02/16 10:34:44;;;;;;;17.87;8.65;;;;;;;;;;1699473;82;21072;-70
2022/02/16 10:37:10;;;;;;;13.25;6.55;;;;;;;;;;1735116;82;21036;-71
2022/02/16 10:39:36;;;;;;;15.25;7.03;;;;;;;;;;1691403;84;21511;-71
2022/02/16 10:42:02;;;;;;;13.55;6.95;;;;;;;;;;1691740;82;21012;-70
2022/02/16 10:44:31;;;;;;;15.00;7.83;;;;;;;;;;1708256;83;21002;-71
2022/02/16 10:47:04;;;;;;;17.42;8.20;;;;;;;;;;1711970;82;21016;-68
2022/02/16 10:49:31;;;;;;;14.53;8.20;;;;;;;;;;1719084;82;21532;-71
2022/02/16 10:52:11;;;;;;;15.40;7.83;;;;;;;;;;1713349;82;21005;-70
2022/02/16 10:54:39;;;;;;;17.37;7.60;;;;;;;;;;1733149;82;21579;-74
2022/02/16 10:57:06;;;;;;;18.87;8.98;;;;;;;;;;1742277;82;21464;-72
2022/02/16 10:59:32;;;;;;;20.23;8.18;;;;;;;;;;1714846;82;21833;-71
2022/02/16 11:02:00;;;;;;;15.08;7.10;;;;;;;;;;1720443;82;21499;-70
2022/02/16 11:04:26;;;;;;;13.68;6.03;;;;;;;;;;1718080;82;21069;-72
2022/02/16 11:06:52;;;;;;;11.73;6.40;;;;;;;;;;1714933;82;21575;-71
2022/02/16 11:09:22;;;;;;;14.55;6.72;;;;;;;;;;1712223;84;21032;-71
2022/02/16 11:11:48;;;;;;;16.02;8.58;;;;;;;;;;1714667;82;21012;-69
2022/02/16 11:14:14;;;;;;;17.02;8.60;;;;;;;;;;1684822;84;21026;-71
2022/02/16 11:16:41;;;;;;;18.07;9.45;;;;;;;;;;1675229;83;21040;-71
2022/02/16 11:19:26;;;;;;;16.50;8.40;;;;;;;;;;1713188;83;21548;-71
2022/02/16 11:21:59;;;;;;;18.40;7.72;;;;;;;;;;1690437;84;21032;-71
2022/02/16 11:24:25;;;;;;;;;;;;;;;;;;1715145;82;21008;-71
2022/02/16 11:26:52;;;;;;;17.40;7.95;;;;;;;;;;1712869;82;20498;-70
2022/02/16 11:29:28;;;;;;;16.45;8.25;;;;;;;;;;1712353;84;21104;-71
2022/02/16 11:32:05;;;;;;;12.30;5.58;;;;;;;;;;1721342;82;21052;-69
2022/02/16 11:34:32;;;;;;;14.30;7.58;;;;;;;;;;1712154;84;21080;-71
2022/02/16 11:36:59;;;;;;;15.98;8.55;;;;;;;;;;1714735;82;20965;-71
2022/02/16 11:39:44;;;;;;;14.73;8.13;;;;;;;;;;1712333;84;21041;-72
2022/02/16 11:42:11;;;;;;;20.62;9.25;;;;;;;;;;1736753;81;21096;-71
2022/02/16 11:44:54;;;;;;;17.67;10.05;;;;;;;;;;1733477;82;20993;-71
2022/02/16 11:47:36;;;;;;;16.97;7.95;;;;;;;;;;1722383;82;21052;-73
2022/02/16 11:50:14;;;;;;;19.50;8.78;;;;;;;;;;1692379;83;21018;-71
2022/02/16 11:52:57;;;;;;;18.87;9.35;;;;;;;;;;1717862;82;21072;-72
2022/02/16 11:55:29;;;;;;;16.85;8.75;;;;;;;;;;1715207;82;21539;-70
2022/02/16 11:57:58;;;;;;;21.23;10.13;;;;;;;;;;1713223;82;20996;-71
2022/02/16 12:00:41;;;;;;;18.40;9.48;;;;;;;;;;1714401;82;21001;-74
2022/02/16 12:03:08;;;;;;;18.23;8.03;;;;;;;;;;1685074;83;21108;-71
2022/02/16 12:05:55;;;;;;;21.45;9.98;;;;;;;;;;1712765;83;20973;-71
2022/02/16 12:08:23;;;;;;;21.60;9.98;;;;;;;;;;1668721;85;21068;-71
2022/02/16 12:10:51;;;;;;;18.90;7.92;;;;;;;;;;1676065;85;21056;-71
2022/02/16 12:13:33;;;;;;;17.60;9.03;;;;;;;;;;1694299;84;21023;-72
2022/02/16 12:16:01;;;;;;;31.12;14.53;;;;;;;;;;1653436;85;21056;-71
2022/02/16 12:18:27;;;;;;;22.42;11.85;;;;;;;;;;1657414;85;21039;-71
2022/02/16 12:20:53;;;;;;;23.95;11.43;;;;;;;;;;1654587;85;21028;-70
2022/02/16 12:23:19;;;;;;;18.98;9.80;;;;;;;;;;1698216;84;21104;-70
2022/02/16 12:25:45;;;;;;;18.92;8.65;;;;;;;;;;1667579;85;21104;-69
2022/02/16 12:28:11;;;;;;;18.23;7.80;;;;;;;;;;1667244;84;21027;-71
2022/02/16 12:30:38;;;;;;;19.85;9.13;;;;;;;;;;1692787;85;21620;-71
2022/02/16 12:33:06;;;;;;;23.05;8.93;;;;;;;;;;1704858;84;21041;-69
2022/02/16 12:35:33;;;;;;;18.98;8.98;;;;;;;;;;1708774;83;21527;-70
2022/02/16 12:37:59;;;;;;;17.52;7.70;;;;;;;;;;1661594;86;21559;-70
2022/02/16 12:40:26;;;;;;;19.30;7.90;;;;;;;;;;1647179;86;21069;-69
2022/02/16 12:42:52;;;;;;;19.27;9.93;;;;;;;;;;1668302;85;21599;-71
2022/02/16 12:45:20;;;;;;;18.45;9.18;;;;;;;;;;1675497;85;21053;-70
2022/02/16 12:47:48;;;;;;;19.52;9.18;;;;;;;;;;1674153;85;21537;-68
2022/02/16 12:50:14;;;;;;;15.25;7.72;;;;;;;;;;1671012;84;21021;-70
2022/02/16 12:52:40;;;;;;;18.87;8.90;;;;;;;;;;1676354;85;21013;-70
2022/02/16 12:55:06;;;;;;;21.17;9.48;;;;;;;;;;1648226;85;21086;-72
2022/02/16 12:57:33;;;;;;;21.77;10.40;;;;;;;;;;1670763;85;21069;-71
2022/02/16 13:02:44;;;;;;;23.20;12.18;;;;;;;;;;1677541;83;21073;-70
2022/02/16 13:05:09;;;;;;;22.48;10.55;;;;;;;;;;1648604;85;21926;-70
2022/02/16 13:07:37;;;;;;;17.52;8.85;;;;;;;;;;1616809;88;21102;-70
2022/02/16 13:10:04;;;;;;;22.60;9.73;;;;;;;;;;1602214;88;21548;-71
2022/02/16 13:12:35;;;;;;;19.35;9.08;;;;;;;;;;1683151;85;21066;-71
2022/02/16 13:15:04;;;;;;;18.10;8.75;;;;;;;;;;1688370;84;21606;-71
2022/02/16 13:17:29;;;;;;;20.92;10.05;;;;;;;;;;1689823;84;21041;-70
2022/02/16 13:19:56;;;;;;;18.77;8.38;;;;;;;;;;1682716;83;21125;-71
2022/02/16 13:22:23;;;;;;;20.27;8.48;;;;;;;;;;1674323;86;21518;-70
2022/02/16 13:24:51;;;;;;;22.87;10.03;;;;;;;;;;1674606;86;21534;-70
2022/02/16 13:27:17;;;;;;;19.57;9.63;;;;;;;;;;1683614;84;21512;-70
2022/02/16 13:29:43;;;;;;;20.97;9.33;;;;;;;;;;1689193;85;22162;-70
2022/02/16 13:32:10;;;;;;;22.65;10.95;;;;;;;;;;1696843;83;21095;-70
2022/02/16 13:34:49;;;;;;;22.17;10.88;;;;;;;;;;1703022;83;21117;-71
2022/02/16 13:37:15;;;;;;;20.70;10.95;;;;;;;;;;1695817;83;21059;-70
2022/02/16 13:39:42;;;;;;;24.32;10.10;;;;;;;;;;1693774;83;21094;-71
2022/02/16 13:42:10;;;;;;;24.82;11.83;;;;;;;;;;1711482;83;21101;-70
2022/02/16 13:44:36;;;;;;;21.27;10.25;;;;;;;;;;1684907;83;21072;-72
2022/02/16 13:47:04;;;;;;;25.50;11.93;;;;;;;;;;1692569;83;21060;-72
2022/02/16 13:49:31;;;;;;;30.45;16.50;;;;;;;;;;1684664;85;21044;-72
2022/02/16 13:52:00;;;;;;;22.82;10.03;;;;;;;;;;1693997;83;20992;-70
2022/02/16 13:54:33;;;;;;;23.12;11.35;;;;;;;;;;1680748;83;21569;-71
2022/02/16 13:57:00;;;;;;;22.02;10.90;;;;;;;;;;1684681;83;21028;-71
2022/02/16 13:59:27;;;;;;;25.92;12.37;;;;;;;;;;1685866;85;21099;-71
2022/02/16 14:02:07;;;;;;;26.82;11.57;;;;;;;;;;1688214;83;21610;-70
2022/02/16 14:04:35;;;;;;;31.35;14.85;;;;;;;;;;1696270;82;21087;-70
2022/02/16 14:07:02;;;;;;;31.82;14.33;;;;;;;;;;1722409;82;21574;-70
2022/02/16 14:09:29;;;;;;;24.27;11.80;;;;;;;;;;1715175;83;20996;-70
2022/02/16 14:11:56;;;;;;;27.20;14.30;;;;;;;;;;1725730;81;21032;-69
2022/02/16 14:14:23;;;;;;;19.82;9.93;;;;;;;;;;1742132;82;21103;-70
2022/02/16 14:16:49;;;;;;;25.85;13.45;;;;;;;;;;1730826;82;21361;-72
2022/02/16 14:19:24;;;;;;;22.73;9.55;;;;;;;;;;1726664;81;21547;-71
2022/02/16 14:21:54;;;;;;;25.80;11.18;;;;;;;;;;1698618;83;21032;-73
2022/02/16 14:24:22;;;;;;;23.80;11.00;;;;;;;;;;1732928;81;21095;-71
2022/02/16 14:26:48;;;;;;;28.23;12.60;;;;;;;;;;1724160;81;21593;-73
2022/02/16 14:29:14;;;;;;;20.60;10.20;;;;;;;;;;1723374;82;21019;-71
2022/02/16 14:31:40;;;;;;;27.50;11.03;;;;;;;;;;1717209;82;21551;-73
2022/02/16 14:34:06;;;;;;;34.60;13.85;;;;;;;;;;1737937;81;21031;-71
2022/02/16 14:36:36;;;;;;;34.03;14.65;;;;;;;;;;1730521;82;21111;-70
2022/02/16 14:39:01;;;;;;;26.12;11.70;;;;;;;;;;1703406;82;21067;-71
2022/02/16 14:41:27;;;;;;;20.90;9.88;;;;;;;;;;1702152;83;21123;-70
2022/02/16 14:43:52;;;;;;;21.65;9.70;;;;;;;;;;1714260;82;21005;-70